sensor_id;sensor_type;location;lat;lon;timestamp;P1;durP1;ratioP1;P2;durP2;ratioP2
45254;SDS011;30989;52.078;21.014;2024-02-21T00:01:58;20.55;;;3.85;;
45254;SDS011;30989;52.078;21.014;2024-02-21T00:04:24;14.68;;;3.30;;
45254;SDS011;30989;52.078;21.014;2024-02-21T00:06:49;22.20;;;5.70;;
45254;SDS011;30989;52.078;21.014;2024-02-21T00:09:15;13.90;;;3.58;;
45254;SDS011;30989;52.078;21.014;2024-02-21T00:11:40;14.18;;;3.72;;
45254;SDS011;30989;52.078;21.014;2024-02-21T00:14:06;15.55;;;4.63;;
45254;SDS011;30989;52.078;21.014;2024-02-21T00:16:32;21.38;;;4.18;;
45254;SDS011;30989;52.078;21.014;2024-02-21T00:18:57;14.82;;;4.88;;
45254;SDS011;30989;52.078;21.014;2024-02-21T00:21:22;19.48;;;4.63;;
45254;SDS011;30989;52.078;21.014;2024-02-21T00:23:51;13.50;;;4.40;;
45254;SDS011;30989;52.078;21.014;2024-02-21T00:26:16;16.48;;;4.10;;
45254;SDS011;30989;52.078;21.014;2024-02-21T00:28:42;11.48;;;3.47;;
45254;SDS011;30989;52.078;21.014;2024-02-21T00:31:08;14.25;;;4.10;;
45254;SDS011;30989;52.078;21.014;2024-02-21T00:33:33;18.98;;;5.38;;
45254;SDS011;30989;52.078;21.014;2024-02-21T00:35:58;14.35;;;4.55;;
45254;SDS011;30989;52.078;21.014;2024-02-21T00:38:24;13.80;;;3.53;;
45254;SDS011;30989;52.078;21.014;2024-02-21T00:40:49;18.15;;;3.85;;
45254;SDS011;30989;52.078;21.014;2024-02-21T00:43:15;10.57;;;3.58;;
45254;SDS011;30989;52.078;21.014;2024-02-21T00:45:40;12.48;;;3.55;;
45254;SDS011;30989;52.078;21.014;2024-02-21T00:48:06;16.30;;;3.92;;
45254;SDS011;30989;52.078;21.014;2024-02-21T00:50:32;14.23;;;3.67;;
45254;SDS011;30989;52.078;21.014;2024-02-21T00:52:57;16.73;;;4.82;;
45254;SDS011;30989;52.078;21.014;2024-02-21T00:55:23;19.23;;;4.03;;
45254;SDS011;30989;52.078;21.014;2024-02-21T00:57:48;9.40;;;3.78;;
45254;SDS011;30989;52.078;21.014;2024-02-21T01:00:14;13.80;;;4.85;;
45254;SDS011;30989;52.078;21.014;2024-02-21T01:02:40;11.00;;;3.47;;
45254;SDS011;30989;52.078;21.014;2024-02-21T01:05:05;9.77;;;3.67;;
45254;SDS011;30989;52.078;21.014;2024-02-21T01:07:31;9.43;;;3.42;;
45254;SDS011;30989;52.078;21.014;2024-02-21T01:09:57;16.15;;;2.90;;
45254;SDS011;30989;52.078;21.014;2024-02-21T01:12:22;13.57;;;3.53;;
45254;SDS011;30989;52.078;21.014;2024-02-21T01:14:48;10.25;;;2.80;;
45254;SDS011;30989;52.078;21.014;2024-02-21T01:17:14;14.75;;;3.22;;
45254;SDS011;30989;52.078;21.014;2024-02-21T01:19:40;13.40;;;3.13;;
45254;SDS011;30989;52.078;21.014;2024-02-21T01:22:06;11.68;;;3.50;;
45254;SDS011;30989;52.078;21.014;2024-02-21T01:24:32;16.08;;;3.92;;
45254;SDS011;30989;52.078;21.014;2024-02-21T01:26:57;11.63;;;2.90;;
45254;SDS011;30989;52.078;21.014;2024-02-21T01:29:23;12.65;;;3.80;;
45254;SDS011;30989;52.078;21.014;2024-02-21T01:31:48;15.70;;;3.95;;
45254;SDS011;30989;52.078;21.014;2024-02-21T01:34:14;13.05;;;3.63;;
45254;SDS011;30989;52.078;21.014;2024-02-21T01:36:39;14.40;;;5.18;;
45254;SDS011;30989;52.078;21.014;2024-02-21T01:39:06;12.52;;;3.33;;
45254;SDS011;30989;52.078;21.014;2024-02-21T01:41:32;10.55;;;3.25;;
45254;SDS011;30989;52.078;21.014;2024-02-21T01:43:57;10.25;;;3.40;;
45254;SDS011;30989;52.078;21.014;2024-02-21T01:46:23;9.55;;;3.25;;
45254;SDS011;30989;52.078;21.014;2024-02-21T01:48:54;12.70;;;3.53;;
45254;SDS011;30989;52.078;21.014;2024-02-21T01:51:20;17.52;;;3.65;;
45254;SDS011;30989;52.078;21.014;2024-02-21T01:53:46;11.48;;;3.03;;
45254;SDS011;30989;52.078;21.014;2024-02-21T01:56:12;10.43;;;3.47;;
45254;SDS011;30989;52.078;21.014;2024-02-21T01:58:39;15.00;;;4.30;;
45254;SDS011;30989;52.078;21.014;2024-02-21T02:01:07;12.73;;;3.97;;
45254;SDS011;30989;52.078;21.014;2024-02-21T02:03:33;14.77;;;3.70;;
45254;SDS011;30989;52.078;21.014;2024-02-21T02:05:59;9.00;;;3.00;;
45254;SDS011;30989;52.078;21.014;2024-02-21T02:08:25;14.40;;;4.93;;
45254;SDS011;30989;52.078;21.014;2024-02-21T02:10:51;19.52;;;3.58;;
45254;SDS011;30989;52.078;21.014;2024-02-21T02:13:17;17.83;;;4.57;;
45254;SDS011;30989;52.078;21.014;2024-02-21T02:15:43;16.00;;;4.40;;
45254;SDS011;30989;52.078;21.014;2024-02-21T02:18:12;20.23;;;5.53;;
45254;SDS011;30989;52.078;21.014;2024-02-21T02:20:39;10.60;;;4.07;;
45254;SDS011;30989;52.078;21.014;2024-02-21T02:25:40;20.52;;;5.07;;
45254;SDS011;30989;52.078;21.014;2024-02-21T02:28:05;14.82;;;3.97;;
45254;SDS011;30989;52.078;21.014;2024-02-21T02:30:35;15.20;;;5.40;;
45254;SDS011;30989;52.078;21.014;2024-02-21T02:33:04;10.43;;;3.88;;
45254;SDS011;30989;52.078;21.014;2024-02-21T02:35:30;12.02;;;5.13;;
45254;SDS011;30989;52.078;21.014;2024-02-21T02:37:56;14.65;;;5.53;;
45254;SDS011;30989;52.078;21.014;2024-02-21T02:40:22;17.35;;;5.07;;
45254;SDS011;30989;52.078;21.014;2024-02-21T02:42:48;14.40;;;4.40;;
45254;SDS011;30989;52.078;21.014;2024-02-21T02:45:14;18.90;;;4.45;;
45254;SDS011;30989;52.078;21.014;2024-02-21T02:47:40;17.50;;;5.25;;
45254;SDS011;30989;52.078;21.014;2024-02-21T02:50:06;19.27;;;5.75;;
45254;SDS011;30989;52.078;21.014;2024-02-21T02:52:32;15.48;;;5.22;;
45254;SDS011;30989;52.078;21.014;2024-02-21T02:54:58;14.95;;;4.43;;
45254;SDS011;30989;52.078;21.014;2024-02-21T02:57:24;12.70;;;4.80;;
45254;SDS011;30989;52.078;21.014;2024-02-21T02:59:50;9.70;;;4.72;;
45254;SDS011;30989;52.078;21.014;2024-02-21T03:02:16;11.93;;;5.22;;
45254;SDS011;30989;52.078;21.014;2024-02-21T03:04:43;14.20;;;7.35;;
45254;SDS011;30989;52.078;21.014;2024-02-21T03:07:08;14.35;;;5.20;;
45254;SDS011;30989;52.078;21.014;2024-02-21T03:09:34;24.02;;;5.72;;
45254;SDS011;30989;52.078;21.014;2024-02-21T03:11:59;21.85;;;5.78;;
45254;SDS011;30989;52.078;21.014;2024-02-21T03:14:31;20.20;;;6.18;;
45254;SDS011;30989;52.078;21.014;2024-02-21T03:16:57;16.35;;;5.78;;
45254;SDS011;30989;52.078;21.014;2024-02-21T03:19:23;13.95;;;4.43;;
45254;SDS011;30989;52.078;21.014;2024-02-21T03:21:49;10.63;;;4.70;;
45254;SDS011;30989;52.078;21.014;2024-02-21T03:24:16;15.85;;;5.15;;
45254;SDS011;30989;52.078;21.014;2024-02-21T03:26:41;18.40;;;5.03;;
45254;SDS011;30989;52.078;21.014;2024-02-21T03:29:07;14.30;;;5.72;;
45254;SDS011;30989;52.078;21.014;2024-02-21T03:31:33;13.43;;;5.30;;
45254;SDS011;30989;52.078;21.014;2024-02-21T03:34:00;13.35;;;5.03;;
45254;SDS011;30989;52.078;21.014;2024-02-21T03:36:25;16.48;;;5.90;;
45254;SDS011;30989;52.078;21.014;2024-02-21T03:38:50;13.80;;;4.68;;
45254;SDS011;30989;52.078;21.014;2024-02-21T03:41:16;14.00;;;5.47;;
45254;SDS011;30989;52.078;21.014;2024-02-21T03:43:41;15.20;;;5.97;;
45254;SDS011;30989;52.078;21.014;2024-02-21T03:46:07;11.90;;;4.60;;
45254;SDS011;30989;52.078;21.014;2024-02-21T03:48:33;11.52;;;4.80;;
45254;SDS011;30989;52.078;21.014;2024-02-21T03:50:58;13.85;;;5.57;;
45254;SDS011;30989;52.078;21.014;2024-02-21T03:53:24;15.82;;;5.13;;
45254;SDS011;30989;52.078;21.014;2024-02-21T03:55:49;17.42;;;5.95;;
45254;SDS011;30989;52.078;21.014;2024-02-21T03:58:15;18.05;;;5.28;;
45254;SDS011;30989;52.078;21.014;2024-02-21T04:00:40;16.67;;;5.82;;
45254;SDS011;30989;52.078;21.014;2024-02-21T04:03:06;16.75;;;4.88;;
45254;SDS011;30989;52.078;21.014;2024-02-21T04:05:32;13.00;;;4.18;;
45254;SDS011;30989;52.078;21.014;2024-02-21T04:07:58;19.50;;;6.05;;
45254;SDS011;30989;52.078;21.014;2024-02-21T04:10:24;17.73;;;5.93;;
45254;SDS011;30989;52.078;21.014;2024-02-21T04:12:49;20.55;;;5.15;;
45254;SDS011;30989;52.078;21.014;2024-02-21T04:15:18;16.70;;;5.18;;
45254;SDS011;30989;52.078;21.014;2024-02-21T04:17:44;13.70;;;4.75;;
45254;SDS011;30989;52.078;21.014;2024-02-21T04:20:13;15.80;;;5.13;;
45254;SDS011;30989;52.078;21.014;2024-02-21T04:22:40;15.25;;;5.28;;
45254;SDS011;30989;52.078;21.014;2024-02-21T04:25:08;14.15;;;4.80;;
45254;SDS011;30989;52.078;21.014;2024-02-21T04:27:33;19.75;;;4.25;;
45254;SDS011;30989;52.078;21.014;2024-02-21T04:29:59;13.10;;;3.78;;
45254;SDS011;30989;52.078;21.014;2024-02-21T04:32:24;15.52;;;5.78;;
45254;SDS011;30989;52.078;21.014;2024-02-21T04:34:52;15.60;;;5.80;;
45254;SDS011;30989;52.078;21.014;2024-02-21T04:37:18;14.05;;;5.07;;
45254;SDS011;30989;52.078;21.014;2024-02-21T04:39:44;12.98;;;5.70;;
45254;SDS011;30989;52.078;21.014;2024-02-21T04:42:09;21.20;;;4.97;;
45254;SDS011;30989;52.078;21.014;2024-02-21T04:44:35;16.25;;;4.97;;
45254;SDS011;30989;52.078;21.014;2024-02-21T04:47:01;15.60;;;5.05;;
45254;SDS011;30989;52.078;21.014;2024-02-21T04:49:28;15.75;;;4.70;;
45254;SDS011;30989;52.078;21.014;2024-02-21T04:51:54;12.38;;;4.28;;
45254;SDS011;30989;52.078;21.014;2024-02-21T04:54:20;15.30;;;5.05;;
45254;SDS011;30989;52.078;21.014;2024-02-21T04:56:45;18.75;;;5.72;;
45254;SDS011;30989;52.078;21.014;2024-02-21T04:59:11;13.48;;;4.80;;
45254;SDS011;30989;52.078;21.014;2024-02-21T05:01:36;15.48;;;5.05;;
45254;SDS011;30989;52.078;21.014;2024-02-21T05:04:02;15.95;;;5.68;;
45254;SDS011;30989;52.078;21.014;2024-02-21T05:06:27;23.05;;;9.98;;
45254;SDS011;30989;52.078;21.014;2024-02-21T05:08:53;12.30;;;5.07;;
45254;SDS011;30989;52.078;21.014;2024-02-21T05:11:23;24.48;;;7.53;;
45254;SDS011;30989;52.078;21.014;2024-02-21T05:13:49;12.63;;;5.43;;
45254;SDS011;30989;52.078;21.014;2024-02-21T05:16:15;22.65;;;5.05;;
45254;SDS011;30989;52.078;21.014;2024-02-21T05:18:41;13.48;;;4.82;;
45254;SDS011;30989;52.078;21.014;2024-02-21T05:21:08;15.50;;;4.80;;
45254;SDS011;30989;52.078;21.014;2024-02-21T05:23:33;12.70;;;5.05;;
45254;SDS011;30989;52.078;21.014;2024-02-21T05:25:59;21.60;;;7.95;;
45254;SDS011;30989;52.078;21.014;2024-02-21T05:28:24;17.42;;;5.50;;
45254;SDS011;30989;52.078;21.014;2024-02-21T05:30:50;14.68;;;5.82;;
45254;SDS011;30989;52.078;21.014;2024-02-21T05:33:15;14.25;;;5.53;;
45254;SDS011;30989;52.078;21.014;2024-02-21T05:35:49;17.42;;;6.20;;
45254;SDS011;30989;52.078;21.014;2024-02-21T05:38:14;15.60;;;5.57;;
45254;SDS011;30989;52.078;21.014;2024-02-21T05:40:40;13.43;;;5.38;;
45254;SDS011;30989;52.078;21.014;2024-02-21T05:43:09;36.75;;;13.02;;
45254;SDS011;30989;52.078;21.014;2024-02-21T05:45:35;18.35;;;7.45;;
45254;SDS011;30989;52.078;21.014;2024-02-21T05:48:01;15.02;;;6.13;;
45254;SDS011;30989;52.078;21.014;2024-02-21T05:50:27;13.40;;;5.55;;
45254;SDS011;30989;52.078;21.014;2024-02-21T05:52:56;22.30;;;7.32;;
45254;SDS011;30989;52.078;21.014;2024-02-21T05:55:22;17.67;;;7.30;;
45254;SDS011;30989;52.078;21.014;2024-02-21T05:57:48;22.23;;;7.22;;
45254;SDS011;30989;52.078;21.014;2024-02-21T06:00:14;26.73;;;10.85;;
45254;SDS011;30989;52.078;21.014;2024-02-21T06:02:40;24.60;;;8.13;;
45254;SDS011;30989;52.078;21.014;2024-02-21T06:05:06;23.48;;;7.35;;
45254;SDS011;30989;52.078;21.014;2024-02-21T06:07:33;15.70;;;6.90;;
45254;SDS011;30989;52.078;21.014;2024-02-21T06:10:01;16.35;;;7.22;;
45254;SDS011;30989;52.078;21.014;2024-02-21T06:12:27;21.83;;;9.18;;
45254;SDS011;30989;52.078;21.014;2024-02-21T06:14:53;18.50;;;6.85;;
45254;SDS011;30989;52.078;21.014;2024-02-21T06:17:18;18.75;;;6.97;;
45254;SDS011;30989;52.078;21.014;2024-02-21T06:19:44;19.45;;;7.95;;
45254;SDS011;30989;52.078;21.014;2024-02-21T06:22:12;24.83;;;8.98;;
45254;SDS011;30989;52.078;21.014;2024-02-21T06:24:38;19.02;;;7.30;;
45254;SDS011;30989;52.078;21.014;2024-02-21T06:27:04;20.63;;;8.18;;
45254;SDS011;30989;52.078;21.014;2024-02-21T06:29:31;20.85;;;8.10;;
45254;SDS011;30989;52.078;21.014;2024-02-21T06:31:57;21.40;;;7.45;;
45254;SDS011;30989;52.078;21.014;2024-02-21T06:34:23;17.50;;;7.57;;
45254;SDS011;30989;52.078;21.014;2024-02-21T06:36:49;25.00;;;8.15;;
45254;SDS011;30989;52.078;21.014;2024-02-21T06:39:15;22.38;;;8.23;;
45254;SDS011;30989;52.078;21.014;2024-02-21T06:41:40;26.35;;;9.68;;
45254;SDS011;30989;52.078;21.014;2024-02-21T06:44:06;33.22;;;8.82;;
45254;SDS011;30989;52.078;21.014;2024-02-21T06:46:31;18.98;;;9.48;;
45254;SDS011;30989;52.078;21.014;2024-02-21T06:48:58;20.88;;;9.82;;
45254;SDS011;30989;52.078;21.014;2024-02-21T06:51:29;24.20;;;9.85;;
45254;SDS011;30989;52.078;21.014;2024-02-21T06:53:54;35.08;;;11.75;;
45254;SDS011;30989;52.078;21.014;2024-02-21T06:56:20;25.92;;;10.77;;
45254;SDS011;30989;52.078;21.014;2024-02-21T06:58:52;27.17;;;10.03;;
45254;SDS011;30989;52.078;21.014;2024-02-21T07:01:26;21.98;;;9.82;;
45254;SDS011;30989;52.078;21.014;2024-02-21T07:03:52;33.72;;;13.82;;
45254;SDS011;30989;52.078;21.014;2024-02-21T07:06:18;31.30;;;12.13;;
45254;SDS011;30989;52.078;21.014;2024-02-21T07:08:43;26.23;;;12.43;;
45254;SDS011;30989;52.078;21.014;2024-02-21T07:11:09;30.40;;;11.02;;
45254;SDS011;30989;52.078;21.014;2024-02-21T07:13:34;33.50;;;11.43;;
45254;SDS011;30989;52.078;21.014;2024-02-21T07:16:00;31.23;;;10.90;;
45254;SDS011;30989;52.078;21.014;2024-02-21T07:18:25;31.80;;;13.85;;
45254;SDS011;30989;52.078;21.014;2024-02-21T07:20:51;24.90;;;11.73;;
45254;SDS011;30989;52.078;21.014;2024-02-21T07:23:17;32.53;;;11.18;;
45254;SDS011;30989;52.078;21.014;2024-02-21T07:25:44;29.52;;;13.07;;
45254;SDS011;30989;52.078;21.014;2024-02-21T07:28:09;33.58;;;10.73;;
45254;SDS011;30989;52.078;21.014;2024-02-21T07:30:35;37.17;;;11.90;;
45254;SDS011;30989;52.078;21.014;2024-02-21T07:33:00;32.45;;;11.52;;
45254;SDS011;30989;52.078;21.014;2024-02-21T07:35:26;26.52;;;9.45;;
45254;SDS011;30989;52.078;21.014;2024-02-21T07:37:51;30.15;;;11.52;;
45254;SDS011;30989;52.078;21.014;2024-02-21T07:40:17;31.40;;;10.35;;
45254;SDS011;30989;52.078;21.014;2024-02-21T07:42:43;25.70;;;10.82;;
45254;SDS011;30989;52.078;21.014;2024-02-21T07:45:09;30.20;;;11.57;;
45254;SDS011;30989;52.078;21.014;2024-02-21T07:47:35;40.50;;;10.65;;
45254;SDS011;30989;52.078;21.014;2024-02-21T07:50:01;28.73;;;10.13;;
45254;SDS011;30989;52.078;21.014;2024-02-21T07:52:27;34.53;;;10.85;;
45254;SDS011;30989;52.078;21.014;2024-02-21T07:54:53;28.95;;;10.25;;
45254;SDS011;30989;52.078;21.014;2024-02-21T07:57:18;31.00;;;10.10;;
45254;SDS011;30989;52.078;21.014;2024-02-21T07:59:44;28.27;;;9.45;;
45254;SDS011;30989;52.078;21.014;2024-02-21T08:02:10;32.47;;;10.38;;
45254;SDS011;30989;52.078;21.014;2024-02-21T08:04:35;31.98;;;11.38;;
45254;SDS011;30989;52.078;21.014;2024-02-21T08:07:02;29.88;;;11.43;;
45254;SDS011;30989;52.078;21.014;2024-02-21T08:09:29;38.67;;;13.35;;
45254;SDS011;30989;52.078;21.014;2024-02-21T08:11:55;26.13;;;10.27;;
45254;SDS011;30989;52.078;21.014;2024-02-21T08:14:21;28.35;;;10.40;;
45254;SDS011;30989;52.078;21.014;2024-02-21T08:16:47;33.60;;;9.75;;
45254;SDS011;30989;52.078;21.014;2024-02-21T08:19:13;34.40;;;10.18;;
45254;SDS011;30989;52.078;21.014;2024-02-21T08:21:39;29.27;;;10.32;;
45254;SDS011;30989;52.078;21.014;2024-02-21T08:24:04;28.35;;;10.40;;
45254;SDS011;30989;52.078;21.014;2024-02-21T08:26:30;29.08;;;9.80;;
45254;SDS011;30989;52.078;21.014;2024-02-21T08:28:59;27.20;;;9.20;;
45254;SDS011;30989;52.078;21.014;2024-02-21T08:31:25;34.15;;;9.63;;
45254;SDS011;30989;52.078;21.014;2024-02-21T08:33:59;27.70;;;9.35;;
45254;SDS011;30989;52.078;21.014;2024-02-21T08:36:28;20.90;;;7.60;;
45254;SDS011;30989;52.078;21.014;2024-02-21T08:38:57;19.58;;;7.53;;
45254;SDS011;30989;52.078;21.014;2024-02-21T08:41:24;21.25;;;8.65;;
45254;SDS011;30989;52.078;21.014;2024-02-21T08:43:52;28.90;;;10.88;;
45254;SDS011;30989;52.078;21.014;2024-02-21T08:46:21;27.27;;;9.13;;
45254;SDS011;30989;52.078;21.014;2024-02-21T08:48:49;34.13;;;12.98;;
45254;SDS011;30989;52.078;21.014;2024-02-21T08:51:16;28.33;;;8.98;;
45254;SDS011;30989;52.078;21.014;2024-02-21T08:53:42;27.92;;;8.93;;
45254;SDS011;30989;52.078;21.014;2024-02-21T08:56:08;27.02;;;9.15;;
45254;SDS011;30989;52.078;21.014;2024-02-21T08:58:34;29.08;;;9.00;;
45254;SDS011;30989;52.078;21.014;2024-02-21T09:01:02;22.15;;;7.97;;
45254;SDS011;30989;52.078;21.014;2024-02-21T09:03:31;37.40;;;10.43;;
45254;SDS011;30989;52.078;21.014;2024-02-21T09:05:59;20.00;;;8.82;;
45254;SDS011;30989;52.078;21.014;2024-02-21T09:08:25;34.58;;;8.23;;
45254;SDS011;30989;52.078;21.014;2024-02-21T09:10:52;28.05;;;7.15;;
45254;SDS011;30989;52.078;21.014;2024-02-21T09:13:18;23.90;;;10.40;;
45254;SDS011;30989;52.078;21.014;2024-02-21T09:15:43;32.67;;;8.25;;
45254;SDS011;30989;52.078;21.014;2024-02-21T09:18:09;27.70;;;6.82;;
45254;SDS011;30989;52.078;21.014;2024-02-21T09:20:34;26.60;;;6.97;;
45254;SDS011;30989;52.078;21.014;2024-02-21T09:23:00;22.70;;;7.45;;
45254;SDS011;30989;52.078;21.014;2024-02-21T09:25:26;27.67;;;8.57;;
45254;SDS011;30989;52.078;21.014;2024-02-21T09:27:53;18.35;;;5.95;;
45254;SDS011;30989;52.078;21.014;2024-02-21T09:30:19;17.90;;;6.43;;
45254;SDS011;30989;52.078;21.014;2024-02-21T09:32:45;19.25;;;8.00;;
45254;SDS011;30989;52.078;21.014;2024-02-21T09:35:10;26.48;;;7.28;;
45254;SDS011;30989;52.078;21.014;2024-02-21T09:37:37;21.38;;;7.30;;
45254;SDS011;30989;52.078;21.014;2024-02-21T09:40:04;31.63;;;8.07;;
45254;SDS011;30989;52.078;21.014;2024-02-21T09:42:37;23.52;;;7.13;;
45254;SDS011;30989;52.078;21.014;2024-02-21T09:45:18;23.13;;;5.97;;
45254;SDS011;30989;52.078;21.014;2024-02-21T09:50:34;19.45;;;6.13;;
45254;SDS011;30989;52.078;21.014;2024-02-21T09:53:02;28.15;;;7.43;;
45254;SDS011;30989;52.078;21.014;2024-02-21T09:55:31;19.40;;;5.90;;
45254;SDS011;30989;52.078;21.014;2024-02-21T09:57:59;25.52;;;6.43;;
45254;SDS011;30989;52.078;21.014;2024-02-21T10:00:26;28.38;;;7.68;;
45254;SDS011;30989;52.078;21.014;2024-02-21T10:02:53;17.67;;;6.20;;
45254;SDS011;30989;52.078;21.014;2024-02-21T10:05:19;29.50;;;6.57;;
45254;SDS011;30989;52.078;21.014;2024-02-21T10:07:45;21.67;;;6.90;;
45254;SDS011;30989;52.078;21.014;2024-02-21T10:10:10;24.27;;;6.60;;
45254;SDS011;30989;52.078;21.014;2024-02-21T10:12:36;20.02;;;6.32;;
45254;SDS011;30989;52.078;21.014;2024-02-21T10:15:05;22.90;;;6.50;;
45254;SDS011;30989;52.078;21.014;2024-02-21T10:17:34;25.25;;;6.30;;
45254;SDS011;30989;52.078;21.014;2024-02-21T10:20:08;28.80;;;6.78;;
45254;SDS011;30989;52.078;21.014;2024-02-21T10:22:34;22.17;;;6.13;;
45254;SDS011;30989;52.078;21.014;2024-02-21T10:25:11;16.63;;;5.68;;
45254;SDS011;30989;52.078;21.014;2024-02-21T10:27:40;26.67;;;7.32;;
45254;SDS011;30989;52.078;21.014;2024-02-21T10:30:13;22.95;;;7.25;;
45254;SDS011;30989;52.078;21.014;2024-02-21T10:32:55;17.88;;;7.13;;
45254;SDS011;30989;52.078;21.014;2024-02-21T10:35:33;34.08;;;9.80;;
45254;SDS011;30989;52.078;21.014;2024-02-21T10:37:59;24.20;;;7.75;;
45254;SDS011;30989;52.078;21.014;2024-02-21T10:40:25;19.88;;;7.88;;
45254;SDS011;30989;52.078;21.014;2024-02-21T10:42:56;24.05;;;6.18;;
45254;SDS011;30989;52.078;21.014;2024-02-21T10:45:30;29.92;;;7.55;;
45254;SDS011;30989;52.078;21.014;2024-02-21T10:48:11;30.92;;;8.52;;
45254;SDS011;30989;52.078;21.014;2024-02-21T10:53:15;21.43;;;6.73;;
45254;SDS011;30989;52.078;21.014;2024-02-21T10:55:58;22.15;;;7.93;;
45254;SDS011;30989;52.078;21.014;2024-02-21T10:58:36;33.13;;;9.18;;
45254;SDS011;30989;52.078;21.014;2024-02-21T11:01:03;21.40;;;8.98;;
45254;SDS011;30989;52.078;21.014;2024-02-21T11:03:30;27.42;;;6.88;;
45254;SDS011;30989;52.078;21.014;2024-02-21T11:05:56;24.67;;;8.15;;
45254;SDS011;30989;52.078;21.014;2024-02-21T11:08:23;24.80;;;8.07;;
45254;SDS011;30989;52.078;21.014;2024-02-21T11:10:50;27.23;;;8.70;;
45254;SDS011;30989;52.078;21.014;2024-02-21T11:13:15;25.60;;;8.00;;
45254;SDS011;30989;52.078;21.014;2024-02-21T11:15:41;24.48;;;6.88;;
45254;SDS011;30989;52.078;21.014;2024-02-21T11:18:06;21.55;;;8.63;;
45254;SDS011;30989;52.078;21.014;2024-02-21T11:20:32;21.90;;;6.90;;
45254;SDS011;30989;52.078;21.014;2024-02-21T11:23:01;15.20;;;7.05;;
45254;SDS011;30989;52.078;21.014;2024-02-21T11:25:30;26.92;;;7.60;;
45254;SDS011;30989;52.078;21.014;2024-02-21T11:28:04;26.13;;;7.43;;
45254;SDS011;30989;52.078;21.014;2024-02-21T11:30:35;20.05;;;8.05;;
45254;SDS011;30989;52.078;21.014;2024-02-21T11:33:07;16.92;;;7.85;;
45254;SDS011;30989;52.078;21.014;2024-02-21T11:35:33;21.05;;;8.35;;
45254;SDS011;30989;52.078;21.014;2024-02-21T11:38:12;28.40;;;8.35;;
45254;SDS011;30989;52.078;21.014;2024-02-21T11:40:43;19.98;;;9.18;;
45254;SDS011;30989;52.078;21.014;2024-02-21T11:43:10;23.90;;;8.68;;
45254;SDS011;30989;52.078;21.014;2024-02-21T11:45:35;18.58;;;7.80;;
45254;SDS011;30989;52.078;21.014;2024-02-21T11:48:01;22.25;;;7.90;;
45254;SDS011;30989;52.078;21.014;2024-02-21T11:50:29;18.23;;;7.00;;
45254;SDS011;30989;52.078;21.014;2024-02-21T11:52:56;33.90;;;9.30;;
45254;SDS011;30989;52.078;21.014;2024-02-21T11:55:22;22.30;;;9.07;;
45254;SDS011;30989;52.078;21.014;2024-02-21T11:57:48;26.42;;;8.45;;
45254;SDS011;30989;52.078;21.014;2024-02-21T12:00:14;16.95;;;7.97;;
45254;SDS011;30989;52.078;21.014;2024-02-21T12:02:41;29.55;;;9.00;;
45254;SDS011;30989;52.078;21.014;2024-02-21T12:05:08;33.30;;;10.18;;
45254;SDS011;30989;52.078;21.014;2024-02-21T12:07:35;20.45;;;9.13;;
45254;SDS011;30989;52.078;21.014;2024-02-21T12:10:02;23.23;;;9.15;;
45254;SDS011;30989;52.078;21.014;2024-02-21T12:12:28;24.40;;;10.13;;
45254;SDS011;30989;52.078;21.014;2024-02-21T12:14:55;28.70;;;9.68;;
45254;SDS011;30989;52.078;21.014;2024-02-21T12:17:23;18.55;;;8.57;;
45254;SDS011;30989;52.078;21.014;2024-02-21T12:19:50;27.13;;;9.45;;
45254;SDS011;30989;52.078;21.014;2024-02-21T12:22:16;24.67;;;9.00;;
45254;SDS011;30989;52.078;21.014;2024-02-21T12:24:43;30.30;;;9.80;;
45254;SDS011;30989;52.078;21.014;2024-02-21T12:27:13;29.50;;;10.02;;
45254;SDS011;30989;52.078;21.014;2024-02-21T12:29:38;23.38;;;10.20;;
45254;SDS011;30989;52.078;21.014;2024-02-21T12:32:04;32.15;;;10.23;;
45254;SDS011;30989;52.078;21.014;2024-02-21T12:34:30;26.92;;;9.77;;
45254;SDS011;30989;52.078;21.014;2024-02-21T12:36:58;31.27;;;10.00;;
45254;SDS011;30989;52.078;21.014;2024-02-21T12:39:24;29.55;;;11.20;;
45254;SDS011;30989;52.078;21.014;2024-02-21T12:41:52;25.95;;;10.40;;
45254;SDS011;30989;52.078;21.014;2024-02-21T12:44:19;20.70;;;8.45;;
45254;SDS011;30989;52.078;21.014;2024-02-21T12:46:44;35.67;;;10.32;;
45254;SDS011;30989;52.078;21.014;2024-02-21T12:49:10;30.20;;;11.70;;
45254;SDS011;30989;52.078;21.014;2024-02-21T12:51:36;35.65;;;10.93;;
45254;SDS011;30989;52.078;21.014;2024-02-21T12:54:01;26.33;;;12.05;;
45254;SDS011;30989;52.078;21.014;2024-02-21T12:56:30;20.45;;;10.13;;
45254;SDS011;30989;52.078;21.014;2024-02-21T12:58:56;31.95;;;9.93;;
45254;SDS011;30989;52.078;21.014;2024-02-21T13:01:22;24.70;;;10.02;;
45254;SDS011;30989;52.078;21.014;2024-02-21T13:03:48;27.08;;;9.68;;
45254;SDS011;30989;52.078;21.014;2024-02-21T13:06:13;25.85;;;9.90;;
45254;SDS011;30989;52.078;21.014;2024-02-21T13:08:39;26.10;;;10.80;;
45254;SDS011;30989;52.078;21.014;2024-02-21T13:11:05;19.02;;;8.55;;
45254;SDS011;30989;52.078;21.014;2024-02-21T13:13:31;27.48;;;10.15;;
45254;SDS011;30989;52.078;21.014;2024-02-21T13:15:57;28.95;;;10.30;;
45254;SDS011;30989;52.078;21.014;2024-02-21T13:18:23;23.15;;;9.68;;
45254;SDS011;30989;52.078;21.014;2024-02-21T13:20:49;21.77;;;10.60;;
45254;SDS011;30989;52.078;21.014;2024-02-21T13:23:14;20.63;;;9.35;;
45254;SDS011;30989;52.078;21.014;2024-02-21T13:25:40;26.30;;;9.95;;
45254;SDS011;30989;52.078;21.014;2024-02-21T13:28:05;27.23;;;10.13;;
45254;SDS011;30989;52.078;21.014;2024-02-21T13:30:32;20.92;;;9.00;;
45254;SDS011;30989;52.078;21.014;2024-02-21T13:32:57;20.95;;;8.52;;
45254;SDS011;30989;52.078;21.014;2024-02-21T13:35:23;27.77;;;8.68;;
45254;SDS011;30989;52.078;21.014;2024-02-21T13:37:48;23.67;;;9.98;;
45254;SDS011;30989;52.078;21.014;2024-02-21T13:40:15;27.95;;;8.77;;
45254;SDS011;30989;52.078;21.014;2024-02-21T13:42:41;27.80;;;9.95;;
45254;SDS011;30989;52.078;21.014;2024-02-21T13:45:08;24.88;;;8.60;;
45254;SDS011;30989;52.078;21.014;2024-02-21T13:47:34;23.10;;;9.70;;
45254;SDS011;30989;52.078;21.014;2024-02-21T13:50:02;23.63;;;8.93;;
45254;SDS011;30989;52.078;21.014;2024-02-21T13:52:29;24.88;;;9.02;;
45254;SDS011;30989;52.078;21.014;2024-02-21T13:54:56;19.30;;;7.90;;
45254;SDS011;30989;52.078;21.014;2024-02-21T13:57:21;20.25;;;8.63;;
45254;SDS011;30989;52.078;21.014;2024-02-21T13:59:47;30.98;;;9.82;;
45254;SDS011;30989;52.078;21.014;2024-02-21T14:02:13;21.52;;;9.32;;
45254;SDS011;30989;52.078;21.014;2024-02-21T14:04:38;27.70;;;8.63;;
45254;SDS011;30989;52.078;21.014;2024-02-21T14:07:04;21.15;;;9.63;;
45254;SDS011;30989;52.078;21.014;2024-02-21T14:09:30;18.25;;;8.35;;
45254;SDS011;30989;52.078;21.014;2024-02-21T14:11:55;20.13;;;8.35;;
45254;SDS011;30989;52.078;21.014;2024-02-21T14:14:21;23.48;;;8.43;;
45254;SDS011;30989;52.078;21.014;2024-02-21T14:16:47;27.42;;;9.30;;
45254;SDS011;30989;52.078;21.014;2024-02-21T14:19:13;20.83;;;8.90;;
45254;SDS011;30989;52.078;21.014;2024-02-21T14:21:39;25.63;;;8.02;;
45254;SDS011;30989;52.078;21.014;2024-02-21T14:24:05;17.83;;;7.43;;